Latest Coastal Weather Observations for Hamilton Island

IDQ60701

Issued at 2:02 pm EST Tuesday 17 July 2018 (issued every 10 minutes, with the page automatically refreshed every 10 minutes)

About coastal observations | Map of coastal stations | Coastal observations for QLD | Marine services | Other Formats
Station Details ID: 033106 Name: HAMILTON ISLAND AIRPORT Lat: -20.37 Lon: 148.95 Height: 58.66 m
Data from the previous 72 hours. | See also: Recent months at Hamilton Island
Date/Time
EST
Temp
°C
Wind Pressure Rain since
9am
mm
Weather Cloud Vis
km
Sea
Height
m
Swell
Dir  Spd
kts
Gust
kts
hPa Trend Height
m
Period
s
Dir
17/02:00pm 20.1 SSE 12 13 1017.2 - 0.2 - Cloudy 10 - - - -
17/01:30pm 19.9 SSE 14 16 1017.4 - 0.2 - Partly cloudy 10 - - - -
17/01:00pm 20.3 SSE 12 14 1017.7 - 0.2 - Cloudy 10 - - - -
17/12:30pm 19.7 SSE 13 15 1018.0 - 0.2 - Cloudy 10 - - - -
17/12:00pm 19.9 SSE 13 16 1018.4 - 0.2 Recent precip. Cloudy 10 - - - -
17/11:30am 19.5 SSE 14 18 1018.6 - 0.0 - Partly cloudy 10 - - - -
17/11:00am 19.9 SSE 13 16 1018.9 - 0.0 - Partly cloudy 10 - - - -
17/10:30am 19.6 SSE 13 16 1019.0 - 0.0 - Partly cloudy 10 - - - -
17/10:00am 20.0 SSE 14 17 1019.0 - 0.0 - Partly cloudy 10 - - - -
17/09:30am 19.3 SSE 13 15 1018.8 - 0.0 - Partly cloudy 10 - - - -
17/09:00am 19.2 SSE 12 14 1018.8 - 0.0 - Partly cloudy 10 - - - -
17/08:56am 18.9 SSE 11 14 1018.8 - 0.0 - Partly cloudy 10 - - - -
17/08:51am 19.1 SSE 10 14 1018.8 - 0.0 - Partly cloudy 10 - - - -
17/08:30am 18.9 S 10 12 1018.6 - 0.0 - Partly cloudy 10 - - - -
17/08:13am 18.4 SSE 10 13 1018.3 - 0.0 - Partly cloudy 10 - - - -
17/08:00am 18.3 SSE 10 12 1018.1 - 0.0 - Partly cloudy 10 - - - -
17/07:30am 18.1 SSE 11 13 1017.7 - 0.0 - - 10 - - - -
17/07:00am 18.1 SSE 10 12 1017.4 - 0.0 - - 10 - - - -
17/06:30am 18.2 SSE 10 12 1017.0 - 0.0 - - 10 - - - -
17/06:11am 18.1 S 9 12 1016.9 - 0.0 - Partly cloudy 10 - - - -
17/06:00am 18.1 S 10 11 1016.7 - 0.0 - Partly cloudy 10 - - - -
17/05:30am 18.3 S 8 10 1016.4 - 0.0 - Cloudy 10 - - - -
17/05:00am 18.2 SSW 6 9 1016.3 - 0.0 - Cloudy 10 - - - -
17/04:30am 18.1 SSW 7 8 1016.2 - 0.0 - Partly cloudy 10 - - - -
17/04:15am 18.0 SSW 7 9 1016.2 - 0.0 - Partly cloudy 10 - - - -
17/04:10am 18.0 SSW 7 9 1016.1 - 0.0 - Partly cloudy 10 - - - -
17/04:00am 18.0 SSW 7 9 1016.1 - 0.0 - Partly cloudy 10 - - - -
17/03:30am 18.2 SW 6 8 1016.2 - 0.0 - Cloudy 10 - - - -
17/03:00am 18.0 SW 6 7 1016.3 - 0.0 - Mostly cloudy 10 - - - -
17/02:34am 18.3 SSW 6 8 1016.4 - 0.0 - Partly cloudy 10 - - - -
17/02:30am 18.3 SSW 6 7 1016.5 - 0.0 - Partly cloudy 10 - - - -
17/02:00am 18.3 SW 4 5 1016.4 - 0.0 - - 10 - - - -
17/01:30am 18.4 SW 3 4 1016.5 - 0.0 - - 10 - - - -
17/01:00am 18.5 WSW 4 5 1016.6 - 0.0 - - 10 - - - -
17/12:30am 18.5 SW 5 5 1016.7 - 0.0 - - 10 - - - -
17/12:00am 18.8 S 5 6 1016.6 - 0.0 - - 10 - - - -
 
Date/Time
EST
Temp
°C
Wind Pressure Rain since
9am
mm
Weather Cloud Vis
km
Sea
Height
m
Swell
Dir  Spd
kts
Gust
kts
hPa Trend Height
m
Period
s
Dir
16/11:30pm 18.5 CALM 0 0 1016.6 - 0.0 - - 10 - - - -
16/11:00pm 18.6 CALM 0 0 1016.6 - 0.0 - - 10 - - - -
16/10:30pm 18.8 CALM 0 0 1016.7 - 0.0 - - 10 - - - -
16/10:00pm 19.0 NW 4 5 1016.7 - 0.0 - - 10 - - - -
16/09:30pm 19.2 CALM 0 0 1016.6 - 0.0 - - 10 - - - -
16/09:00pm 19.3 CALM 0 0 1016.4 - 0.0 - - 10 - - - -
16/08:30pm 19.6 SSE 3 4 1016.3 - 0.0 - - 10 - - - -
16/08:00pm 19.3 WNW 3 4 1015.8 - 0.0 - - 10 - - - -
16/07:30pm 19.3 NE 3 5 1015.3 - 0.0 - - 10 - - - -
16/07:00pm 19.7 NNE 3 5 1015.0 - 0.0 - - 10 - - - -
16/06:30pm 19.8 NNE 6 7 1014.5 - 0.0 - - 10 - - - -
16/06:00pm 19.9 NE 6 8 1014.1 - 0.0 - - 10 - - - -
16/05:30pm 20.3 NE 9 12 1013.9 - 0.0 - - 10 - - - -
16/05:00pm 21.2 NE 9 11 1013.7 - 0.0 - - 10 - - - -
16/04:30pm 21.2 ENE 8 10 1013.5 - 0.0 - - 10 - - - -
16/04:00pm 21.1 E 10 12 1013.5 - 0.0 - - 10 - - - -
16/03:30pm 21.1 E 8 9 1013.6 - 0.0 - - 10 - - - -
16/03:00pm 21.2 E 7 9 1013.9 - 0.0 - - 10 - - - -
16/02:30pm 20.8 ESE 8 9 1014.3 - 0.0 - Partly cloudy 10 - - - -
16/02:00pm 21.2 ESE 9 11 1014.6 - 0.0 - - 10 - - - -
16/01:30pm 20.9 SE 7 9 1014.9 - 0.0 - Partly cloudy 10 - - - -
16/01:00pm 20.4 SE 7 8 1015.2 - 0.0 - - 10 - - - -
16/12:30pm 21.0 SE 7 8 1015.7 - 0.0 - - 10 - - - -
16/12:00pm 20.4 SE 6 7 1016.2 - 0.0 - - 10 - - - -
16/11:30am 20.1 SE 7 8 1016.7 - 0.0 - - 10 - - - -
16/11:00am 20.3 SE 6 7 1017.2 - 0.0 - - 10 - - - -
16/10:30am 20.8 SSE 6 8 1017.4 - 0.0 - - 10 - - - -
16/10:00am 20.6 SSE 4 7 1017.6 - 0.0 - - 10 - - - -
16/09:30am 19.6 SE 5 7 1017.6 - 0.0 - - 10 - - - -
16/09:00am 19.7 SSE 4 6 1017.3 - 0.0 - - 10 - - - -
16/08:30am 18.6 SSW 3 5 1017.2 - 0.0 - - 10 - - - -
16/08:00am 18.8 SSE 4 6 1016.9 - 0.0 - - 10 - - - -
16/07:30am 18.2 SSE 5 7 1016.5 - 0.0 - - 10 - - - -
16/07:00am 17.1 S 7 8 1016.3 - 0.0 - - 10 - - - -
16/06:30am 16.9 SSE 7 9 1015.8 - 0.0 - - 10 - - - -
16/06:00am 16.8 S 9 11 1015.4 - 0.0 - - 10 - - - -
16/05:30am 16.8 S 9 12 1015.2 - 0.0 - - 10 - - - -
16/05:00am 17.1 SSE 9 12 1015.1 - 0.0 - - 10 - - - -
16/04:30am 16.9 S 10 13 1015.2 - 0.0 - - 10 - - - -
16/04:00am 17.0 S 10 13 1015.2 - 0.0 - - 10 - - - -
16/03:30am 17.0 S 11 15 1015.4 - 0.0 - - 10 - - - -
16/03:00am 17.3 S 10 12 1015.4 - 0.0 - - 10 - - - -
16/02:30am 17.3 S 11 13 1015.5 - 0.0 - - 10 - - - -
16/02:00am 17.3 S 10 12 1015.6 - 0.0 - - 10 - - - -
16/01:30am 17.4 S 10 12 1015.8 - 0.0 - - 10 - - - -
16/01:00am 18.0 SE 9 11 1015.9 - 0.0 - - 10 - - - -
16/12:30am 17.8 SE 7 9 1016.3 - 0.0 - - 10 - - - -
16/12:00am 17.3 ESE 5 8 1016.2 - 0.0 - - 10 - - - -
 
Date/Time
EST
Temp
°C
Wind Pressure Rain since
9am
mm
Weather Cloud Vis
km
Sea
Height
m
Swell
Dir  Spd
kts
Gust
kts
hPa Trend Height
m
Period
s
Dir
15/11:30pm 17.4 SE 5 7 1016.3 - 0.0 - - 10 - - - -
15/11:00pm 17.6 SE 7 8 1016.4 - 0.0 - - 10 - - - -
15/10:30pm 17.8 SE 7 9 1016.5 - 0.0 - - 10 - - - -
15/10:00pm 17.7 SE 8 10 1016.6 - 0.0 - - 10 - - - -
15/09:30pm 18.1 SE 9 11 1016.7 - 0.0 - - 10 - - - -
15/09:00pm 18.4 ESE 10 11 1016.6 - 0.0 - - 10 - - - -
15/08:30pm 18.5 ESE 11 13 1016.4 - 0.0 - - 10 - - - -
15/08:00pm 18.6 ESE 13 15 1016.0 - 0.0 - - 10 - - - -
15/07:30pm 18.5 ESE 13 16 1015.8 - 0.0 - - 10 - - - -
15/07:00pm 18.5 ESE 13 15 1015.6 - 0.0 - - 10 - - - -
15/06:30pm 18.7 ESE 14 16 1015.4 - 0.0 - - 10 - - - -
15/06:00pm 18.4 ESE 13 16 1015.3 - 0.0 - - 10 - - - -
15/05:30pm 18.6 ESE 15 17 1015.0 - 0.0 - - 10 - - - -
15/05:00pm 18.8 ESE 14 17 1014.9 - 0.0 - - 10 - - - -
15/04:30pm 19.1 ESE 15 16 1014.7 - 0.0 - - 10 - - - -
15/04:00pm 19.2 ESE 14 17 1014.7 - 0.0 - - 10 - - - -
15/03:30pm 19.5 ESE 14 16 1014.7 - 0.0 - - 10 - - - -
15/03:00pm 19.9 ESE 13 15 1015.0 - 0.0 - - 10 - - - -
15/02:30pm 19.9 ESE 11 13 1015.2 - 0.0 - - 10 - - - -
15/02:00pm 20.3 SE 12 14 1015.5 - 0.0 - - 10 - - - -
15/01:30pm 20.4 SE 13 16 1015.8 - 0.0 - - 10 - - - -
15/01:00pm 20.3 SSE 13 16 1016.1 - 0.0 - - 10 - - - -
15/12:30pm 20.5 SSE 13 15 1016.6 - 0.0 - - 10 - - - -
15/12:00pm 19.7 SSE 14 16 1017.1 - 0.0 - - 10 - - - -
15/11:30am 19.6 SSE 13 17 1017.3 - 0.0 - - 10 - - - -
15/11:00am 19.5 SSE 14 16 1017.7 - 0.0 - - 10 - - - -
15/10:30am 19.6 SSE 13 17 1017.8 - 0.0 - - 10 - - - -
15/10:00am 19.5 SSE 14 16 1017.9 - 0.0 - - 10 - - - -
15/09:30am 19.2 SSE 15 17 1018.0 - 0.0 - - 10 - - - -
15/09:00am 19.3 SSE 16 18 1017.9 - 0.0 - - 10 - - - -
15/08:30am 18.8 SSE 16 18 1017.8 - 0.0 - - 10 - - - -
15/08:00am 18.6 SSE 15 18 1017.7 - 0.0 - - 10 - - - -
15/07:30am 18.4 SSE 15 18 1017.5 - 0.0 - - 10 - - - -
15/07:00am 17.8 SSE 15 18 1017.1 - 0.0 - - 10 - - - -
15/06:30am 17.7 SSE 16 19 1016.8 - 0.0 - - 10 - - - -
15/06:00am 17.6 SSE 14 17 1016.5 - 0.0 - - 10 - - - -
15/05:30am 17.7 SSE 15 18 1016.3 - 0.0 - - 10 - - - -
15/05:00am 18.0 SSE 13 15 1016.2 - 0.0 - - 10 - - - -
15/04:30am 18.4 SE 14 17 1016.0 - 0.0 - - 10 - - - -
15/04:00am 18.5 SE 15 19 1015.9 - 0.0 - - 10 - - - -
15/03:30am 18.6 SE 15 17 1016.0 - 0.0 - - 10 - - - -
15/03:00am 18.6 SE 14 18 1016.2 - 0.0 - - 10 - - - -
15/02:30am 18.8 ESE 15 19 1016.3 - 0.0 - - 10 - - - -
15/02:00am 18.9 ESE 15 19 1016.4 - 0.0 - - 10 - - - -
15/01:30am 19.0 ESE 16 19 1016.5 - 0.0 - - 10 - - - -
15/01:00am 18.8 SE 14 16 1016.6 - 0.0 - - 10 - - - -
15/12:30am 18.8 SE 13 16 1016.7 - 0.0 - - 10 - - - -
15/12:00am 18.9 ESE 13 16 1016.7 - 0.0 - - 10 - - - -
 
Date/Time
EST
Temp
°C
Wind Pressure Rain since
9am
mm
Weather Cloud Vis
km
Sea
Height
m
Swell
Dir  Spd
kts
Gust
kts
hPa Trend Height
m
Period
s
Dir
14/11:30pm 19.1 ESE 15 18 1016.8 - 0.0 - - 10 - - - -
14/11:00pm 19.0 ESE 15 17 1017.0 - 0.0 - - 10 - - - -
14/10:30pm 19.3 ESE 14 17 1017.0 - 0.0 - - 10 - - - -
14/10:00pm 19.0 ESE 14 18 1017.0 - 0.0 - - 10 - - - -
14/09:30pm 19.2 ESE 15 17 1016.7 - 0.0 - - 10 - - - -
14/09:00pm 19.2 ESE 16 19 1016.7 - 0.0 - - 10 - - - -
14/08:30pm 19.2 ESE 16 19 1016.5 - 0.0 - - 10 - - - -
14/08:00pm 19.4 ESE 17 19 1016.3 - 0.0 - - 10 - - - -
14/07:30pm 19.2 ESE 17 21 1015.9 - 0.0 - - 10 - - - -
14/07:00pm 19.3 ESE 17 19 1015.6 - 0.0 - - 10 - - - -
14/06:30pm 19.4 ESE 17 21 1015.4 - 0.0 - - 10 - - - -
14/06:00pm 19.4 ESE 19 21 1015.3 - 0.0 - - 10 - - - -
14/05:30pm 19.3 ESE 18 21 1015.1 - 0.0 - - 10 - - - -
14/05:00pm 19.3 ESE 15 19 1015.2 - 0.0 - - 10 - - - -
14/04:30pm 19.3 ESE 15 18 1015.2 - 0.0 - - 10 - - - -
14/04:00pm 19.4 SE 16 18 1015.0 - 0.0 - - 10 - - - -
14/03:30pm 19.6 ESE 15 17 1015.1 - 0.0 - - 10 - - - -
14/03:00pm 20.1 SE 13 16 1015.3 - 0.0 - - 10 - - - -
14/02:30pm 20.1 SE 15 17 1015.7 - 0.0 - - 10 - - - -

Other Formats:

Comma delimited format used in spreadsheet applications
http://www.bom.gov.au/fwo/IDQ60701/IDQ60701.94368.axf

JavaScript Object Notation format (JSON) in row-major order
http://www.bom.gov.au/fwo/IDQ60701/IDQ60701.94368.json